Аэропорт: Кокшетау. Кокшетау

ICAO: UACK

METAR:
Информация по данной станции не доступна
METAR:
2021-07-28 11:01:00
TAF UACK 281101Z 2812/2821 26006MPS 9999 SCT040 BKN100 TEMPO 2812/2821 27009G14MPS -TSRA BKN030CB